createdAt,value
2022-10-14T00:00:17.832Z,11.12
2022-10-14T00:02:47.309Z,11.12
2022-10-14T00:05:16.881Z,11.11
2022-10-14T00:07:46.265Z,11.11
2022-10-14T00:10:15.661Z,11.10
2022-10-14T00:12:45.350Z,11.11
2022-10-14T00:15:15.073Z,11.10
2022-10-14T00:17:45.906Z,11.12
2022-10-14T00:20:15.281Z,11.12
2022-10-14T00:22:44.657Z,11.13
2022-10-14T00:25:14.063Z,11.13
2022-10-14T00:27:43.415Z,11.12
2022-10-14T00:30:14.857Z,11.10
2022-10-14T00:32:45.817Z,11.11
2022-10-14T00:35:15.594Z,11.08
2022-10-14T00:37:45.015Z,11.09
2022-10-14T00:40:14.898Z,11.09
2022-10-14T00:42:44.280Z,11.12
2022-10-14T00:45:21.206Z,11.14
2022-10-14T00:47:54.038Z,11.18
2022-10-14T00:50:23.829Z,11.23
2022-10-14T00:52:54.295Z,11.23
2022-10-14T00:55:23.884Z,11.20
2022-10-14T00:57:53.308Z,11.20
2022-10-14T01:00:23.807Z,11.23
2022-10-14T01:02:54.573Z,11.27
2022-10-14T01:05:25.877Z,11.28
2022-10-14T01:08:06.984Z,11.24
2022-10-14T01:10:45.213Z,11.18
2022-10-14T01:13:27.632Z,11.19
2022-10-14T01:16:17.977Z,11.18
2022-10-14T01:19:20.028Z,11.19
2022-10-14T01:21:57.169Z,11.19
2022-10-14T01:24:45.387Z,11.18
2022-10-14T01:28:20.786Z,11.14
2022-10-14T01:30:59.592Z,11.16
2022-10-14T01:33:36.752Z,11.16
2022-10-14T01:36:17.680Z,11.17
2022-10-14T01:38:52.950Z,11.11
2022-10-14T01:41:28.692Z,11.09
2022-10-14T01:44:05.987Z,11.06
2022-10-14T01:46:39.945Z,11.06
2022-10-14T01:49:20.137Z,11.04
2022-10-14T01:51:55.907Z,11.05
2022-10-14T01:54:31.601Z,11.08
2022-10-14T01:57:06.638Z,11.10
2022-10-14T01:59:38.275Z,11.07
2022-10-14T02:02:09.107Z,11.10
2022-10-14T02:04:38.535Z,11.03
2022-10-14T02:07:16.519Z,10.97
2022-10-14T02:09:57.718Z,10.96
2022-10-14T02:12:40.654Z,10.94
2022-10-14T02:15:22.326Z,10.94
2022-10-14T02:18:01.788Z,10.94
2022-10-14T02:20:38.450Z,10.95
2022-10-14T02:23:34.321Z,10.94
2022-10-14T02:26:05.225Z,10.95
2022-10-14T02:28:36.166Z,10.93
2022-10-14T02:31:12.153Z,10.93
2022-10-14T02:33:53.150Z,10.94
2022-10-14T02:36:25.995Z,10.92
2022-10-14T02:38:59.072Z,10.89
2022-10-14T02:41:35.876Z,10.93
2022-10-14T02:44:07.805Z,10.96
2022-10-14T02:46:40.629Z,10.90
2022-10-14T02:49:13.977Z,10.88
2022-10-14T02:51:45.774Z,10.88
2022-10-14T02:54:15.445Z,10.89
2022-10-14T02:56:44.911Z,10.87
2022-10-14T02:59:14.271Z,10.88
2022-10-14T03:01:43.825Z,10.84
2022-10-14T03:04:15.398Z,10.82
2022-10-14T03:06:45.415Z,10.82
2022-10-14T03:09:15.957Z,10.80
2022-10-14T03:11:47.109Z,10.78
2022-10-14T03:14:20.066Z,10.77
2022-10-14T03:16:50.155Z,10.78
2022-10-14T03:19:25.733Z,10.76
2022-10-14T03:21:57.952Z,10.75
2022-10-14T03:24:28.717Z,10.76
2022-10-14T03:27:20.225Z,10.76
2022-10-14T03:29:53.508Z,10.79
2022-10-14T03:32:26.852Z,10.78
2022-10-14T03:35:16.629Z,10.77
2022-10-14T03:37:49.336Z,10.78
2022-10-14T03:40:22.068Z,10.76
2022-10-14T03:42:52.992Z,10.78
2022-10-14T03:45:24.398Z,10.77
2022-10-14T03:47:55.461Z,10.76
2022-10-14T03:50:26.341Z,10.72
2022-10-14T03:52:57.876Z,10.71
2022-10-14T03:55:33.994Z,10.68
2022-10-14T03:58:03.713Z,10.67
2022-10-14T04:00:35.529Z,10.66
2022-10-14T04:03:21.448Z,10.65
2022-10-14T04:05:52.150Z,10.63
2022-10-14T04:08:25.169Z,10.61
2022-10-14T04:11:01.045Z,10.62
2022-10-14T04:13:35.151Z,10.60
2022-10-14T04:16:07.414Z,10.58
2022-10-14T04:18:41.233Z,10.55
2022-10-14T04:21:14.409Z,10.52
2022-10-14T04:23:51.498Z,10.52
2022-10-14T04:26:25.801Z,10.54
2022-10-14T04:28:56.407Z,10.54
2022-10-14T04:31:36.049Z,10.59
2022-10-14T04:34:05.914Z,10.57
2022-10-14T04:36:41.847Z,10.59
2022-10-14T04:39:27.207Z,10.58
2022-10-14T04:41:56.655Z,10.60
2022-10-14T04:44:26.233Z,10.61
2022-10-14T04:46:57.357Z,10.61
2022-10-14T04:49:28.615Z,10.61
2022-10-14T04:52:07.904Z,10.62
2022-10-14T04:54:54.000Z,10.62
2022-10-14T04:57:35.206Z,10.61
2022-10-14T05:00:06.856Z,10.63
2022-10-14T05:03:04.870Z,10.66
2022-10-14T05:05:37.675Z,10.66
2022-10-14T05:08:09.895Z,10.64
2022-10-14T05:10:43.238Z,10.64
2022-10-14T05:13:19.862Z,10.64
2022-10-14T05:15:59.420Z,10.63
2022-10-14T05:18:29.713Z,10.63
2022-10-14T05:21:09.329Z,10.64
2022-10-14T05:24:01.652Z,10.63
2022-10-14T05:26:34.009Z,10.65
2022-10-14T05:29:07.681Z,10.65
2022-10-14T05:31:38.429Z,10.64
2022-10-14T05:34:23.010Z,10.64
2022-10-14T05:36:53.237Z,10.66
2022-10-14T05:39:27.100Z,10.66
2022-10-14T05:41:58.072Z,10.65
2022-10-14T05:44:30.099Z,10.66
2022-10-14T05:47:01.176Z,10.67
2022-10-14T05:49:30.661Z,10.70
2022-10-14T05:52:02.905Z,10.71
2022-10-14T05:54:35.578Z,10.73
2022-10-14T05:57:07.143Z,10.76
2022-10-14T05:59:37.558Z,10.77
2022-10-14T06:02:08.664Z,10.81
2022-10-14T06:04:40.913Z,10.80
2022-10-14T06:07:11.121Z,10.83
2022-10-14T06:09:42.532Z,10.83
2022-10-14T06:12:12.198Z,10.86
2022-10-14T06:14:41.809Z,10.86
2022-10-14T06:17:11.825Z,10.88
2022-10-14T06:19:41.443Z,10.89
2022-10-14T06:22:10.860Z,10.88
2022-10-14T06:24:41.705Z,10.90
2022-10-14T06:27:11.194Z,10.91
2022-10-14T06:29:40.737Z,10.94
2022-10-14T06:32:11.138Z,10.97
2022-10-14T06:34:40.661Z,10.97
2022-10-14T06:37:10.108Z,10.99
2022-10-14T06:39:39.613Z,11.00
2022-10-14T06:42:20.785Z,11.02
2022-10-14T06:44:50.189Z,11.05
2022-10-14T06:47:19.556Z,11.09
2022-10-14T06:49:48.921Z,11.12
2022-10-14T06:52:18.452Z,11.14
2022-10-14T06:54:48.513Z,11.19
2022-10-14T06:57:19.584Z,11.25
2022-10-14T06:59:49.051Z,11.26
2022-10-14T07:02:18.843Z,11.29
2022-10-14T07:04:48.413Z,11.34
2022-10-14T07:07:17.935Z,11.33
2022-10-14T07:09:47.381Z,11.34
2022-10-14T07:12:17.113Z,11.37
2022-10-14T07:14:48.038Z,11.41
2022-10-14T07:17:17.700Z,11.50
2022-10-14T07:19:47.223Z,11.56
2022-10-14T07:22:17.623Z,11.61
2022-10-14T07:24:47.196Z,11.64
2022-10-14T07:27:17.024Z,11.67
2022-10-14T07:29:48.074Z,11.74
2022-10-14T07:32:17.482Z,11.79
2022-10-14T07:34:46.938Z,11.85
2022-10-14T07:37:16.335Z,11.85
2022-10-14T07:39:45.940Z,11.86
2022-10-14T07:42:15.497Z,11.82
2022-10-14T07:44:45.824Z,11.77
2022-10-14T07:47:17.162Z,11.76
2022-10-14T07:49:46.613Z,11.76
2022-10-14T07:52:19.427Z,11.79
2022-10-14T07:54:48.959Z,11.87
2022-10-14T07:57:18.521Z,11.96
2022-10-14T07:59:48.079Z,12.05
2022-10-14T08:02:18.862Z,12.11
2022-10-14T08:04:48.584Z,12.19
2022-10-14T08:07:18.052Z,12.29
2022-10-14T08:09:47.504Z,12.35
2022-10-14T08:12:16.985Z,12.40
2022-10-14T08:14:46.592Z,12.49
2022-10-14T08:17:18.515Z,12.57
2022-10-14T08:19:47.925Z,12.60
2022-10-14T08:22:17.592Z,12.70
2022-10-14T08:24:50.038Z,12.75
2022-10-14T08:27:20.717Z,12.80
2022-10-14T08:29:51.185Z,12.87
2022-10-14T08:32:23.549Z,12.93
2022-10-14T08:34:55.861Z,12.95
2022-10-14T08:37:25.393Z,12.99
2022-10-14T08:39:54.945Z,13.05
2022-10-14T08:42:39.721Z,13.18
2022-10-14T08:45:18.702Z,13.29
2022-10-14T08:47:50.981Z,13.41
2022-10-14T08:50:29.486Z,13.57
2022-10-14T08:53:08.276Z,13.74
2022-10-14T08:55:41.901Z,13.88
2022-10-14T08:58:20.217Z,13.98
2022-10-14T09:00:54.048Z,14.05
2022-10-14T09:03:33.205Z,14.15
2022-10-14T09:06:07.215Z,14.20
2022-10-14T09:08:42.174Z,14.23
2022-10-14T09:11:16.521Z,14.28
2022-10-14T09:13:50.515Z,14.31
2022-10-14T09:16:23.980Z,14.39
2022-10-14T09:19:08.860Z,14.45
2022-10-14T09:21:52.332Z,14.49
2022-10-14T09:24:26.987Z,14.53
2022-10-14T09:27:04.010Z,14.57
2022-10-14T09:29:41.814Z,14.62
2022-10-14T09:32:20.517Z,14.65
2022-10-14T09:34:53.053Z,14.70
2022-10-14T09:37:29.626Z,14.71
2022-10-14T09:40:04.885Z,14.79
2022-10-14T09:42:49.777Z,14.84
2022-10-14T09:45:23.510Z,14.87
2022-10-14T09:47:57.844Z,14.89
2022-10-14T09:50:37.666Z,14.96
2022-10-14T09:53:20.778Z,14.97
2022-10-14T09:55:56.860Z,14.99
2022-10-14T09:58:33.755Z,14.99
2022-10-14T10:01:04.205Z,15.02
2022-10-14T10:03:36.131Z,15.07
2022-10-14T10:06:11.271Z,15.10
2022-10-14T10:08:56.605Z,15.14
2022-10-14T10:11:37.318Z,15.19
2022-10-14T10:14:22.797Z,15.23
2022-10-14T10:17:15.023Z,15.32
2022-10-14T10:19:47.917Z,15.38
2022-10-14T10:22:31.573Z,15.40
2022-10-14T10:25:26.403Z,15.42
2022-10-14T10:28:00.418Z,15.45
2022-10-14T10:30:37.130Z,15.48
2022-10-14T10:33:28.449Z,15.63
2022-10-14T10:36:22.448Z,15.68
2022-10-14T10:39:00.490Z,15.78
2022-10-14T10:41:50.677Z,15.84
2022-10-14T10:44:53.324Z,16.00
2022-10-14T10:47:38.395Z,16.10
2022-10-14T10:50:30.367Z,16.13
2022-10-14T10:53:34.103Z,16.33
2022-10-14T10:56:23.508Z,16.41
2022-10-14T10:59:20.706Z,16.45
2022-10-14T11:02:10.349Z,16.54
2022-10-14T11:04:48.121Z,16.59
2022-10-14T11:23:38.365Z,16.98
2022-10-14T11:26:27.571Z,17.09
2022-10-14T11:29:18.660Z,17.17
2022-10-14T11:31:58.504Z,17.19
2022-10-14T11:35:11.341Z,17.24
2022-10-14T11:37:58.071Z,17.32
2022-10-14T11:40:40.084Z,17.33
2022-10-14T11:43:28.941Z,17.34
2022-10-14T11:46:02.179Z,17.37
2022-10-14T11:48:39.752Z,17.37
2022-10-14T11:51:17.191Z,17.40
2022-10-14T11:54:03.125Z,17.42
2022-10-14T12:04:19.562Z,17.42
2022-10-14T12:07:01.736Z,17.42
2022-10-14T12:09:40.237Z,17.46
2022-10-14T12:12:14.870Z,17.41
2022-10-14T12:14:50.186Z,17.34
2022-10-14T12:17:28.758Z,17.31
2022-10-14T12:20:02.577Z,17.38
2022-10-14T12:22:34.901Z,17.27
2022-10-14T12:25:12.419Z,17.31
2022-10-14T12:27:42.798Z,17.40
2022-10-14T12:30:35.063Z,17.35
2022-10-14T12:33:08.922Z,17.43
2022-10-14T12:35:59.415Z,17.36
2022-10-14T12:38:34.501Z,17.37
2022-10-14T12:41:40.248Z,17.36
2022-10-14T12:44:18.609Z,17.22
2022-10-14T12:46:52.816Z,17.15
2022-10-14T12:49:28.432Z,17.19
2022-10-14T12:52:02.420Z,17.13
2022-10-14T12:54:35.624Z,17.08
2022-10-14T12:57:07.914Z,17.09
2022-10-14T12:59:40.289Z,17.05
2022-10-14T13:03:50.018Z,17.04
2022-10-14T13:06:38.530Z,17.10
2022-10-14T13:09:43.973Z,17.11
2022-10-14T13:12:45.662Z,17.08
2022-10-14T13:15:53.358Z,17.06
2022-10-14T13:19:01.046Z,17.01
2022-10-14T13:21:54.308Z,16.92
2022-10-14T13:24:28.768Z,16.80
2022-10-14T13:27:15.238Z,16.79
2022-10-14T13:30:06.078Z,16.67
2022-10-14T13:32:45.041Z,16.55
2022-10-14T13:35:27.069Z,16.19
2022-10-14T13:38:04.016Z,15.82
2022-10-14T13:40:38.991Z,15.43
2022-10-14T13:43:20.341Z,15.16
2022-10-14T13:45:55.789Z,14.86
2022-10-14T13:48:34.184Z,14.65
2022-10-14T13:51:36.574Z,14.27
2022-10-14T13:54:23.445Z,14.14
2022-10-14T14:00:39.094Z,13.94
2022-10-14T14:02:49.082Z,13.90
2022-10-14T14:05:22.725Z,13.77
2022-10-14T14:11:15.177Z,13.67
2022-10-14T14:13:59.912Z,13.58
2022-10-14T14:16:41.348Z,13.55
2022-10-14T14:19:21.039Z,13.49
2022-10-14T14:21:52.221Z,13.51
2022-10-14T14:24:25.984Z,13.49
2022-10-14T14:26:56.906Z,13.49
2022-10-14T14:29:32.197Z,13.49
2022-10-14T14:32:07.079Z,13.52
2022-10-14T14:34:39.995Z,13.44
2022-10-14T14:37:43.905Z,13.40
2022-10-14T14:40:20.557Z,13.42
2022-10-14T14:42:54.360Z,13.39
2022-10-14T14:45:26.892Z,13.38
2022-10-14T14:48:06.389Z,13.39
2022-10-14T14:50:42.766Z,13.38
2022-10-14T14:53:17.604Z,13.41
2022-10-14T14:56:00.825Z,13.43
2022-10-14T14:58:35.568Z,13.43
2022-10-14T15:01:08.721Z,13.48
2022-10-14T15:04:12.685Z,13.49
2022-10-14T15:06:51.168Z,13.53
2022-10-14T15:09:34.681Z,13.55
2022-10-14T15:12:15.090Z,13.54
2022-10-14T15:14:48.613Z,13.53
2022-10-14T15:17:32.200Z,13.50
2022-10-14T15:20:30.557Z,13.50
2022-10-14T15:23:00.662Z,13.52
2022-10-14T15:25:32.689Z,13.52
2022-10-14T15:28:04.168Z,13.54
2022-10-14T15:30:36.740Z,13.54
2022-10-14T15:33:16.930Z,13.57
2022-10-14T15:35:57.590Z,13.60
2022-10-14T15:38:27.911Z,13.56
2022-10-14T15:40:57.644Z,13.58
2022-10-14T15:43:28.604Z,13.56
2022-10-14T15:46:18.303Z,13.56
2022-10-14T15:48:50.974Z,13.55
2022-10-14T15:51:25.534Z,13.57
2022-10-14T15:53:54.954Z,13.54
2022-10-14T15:56:27.948Z,13.54
2022-10-14T15:58:57.323Z,13.51
2022-10-14T16:01:26.940Z,13.50
2022-10-14T16:03:56.875Z,13.46
2022-10-14T16:06:29.443Z,13.43
2022-10-14T16:08:58.883Z,13.42
2022-10-14T16:11:32.115Z,13.41
2022-10-14T16:14:01.582Z,13.39
2022-10-14T16:16:37.893Z,13.37
2022-10-14T16:19:07.322Z,13.35
2022-10-14T16:21:40.211Z,13.32
2022-10-14T16:24:20.721Z,13.29
2022-10-14T16:26:50.798Z,13.30
2022-10-14T16:29:21.717Z,13.28
2022-10-14T16:31:52.376Z,13.32
2022-10-14T16:34:24.609Z,13.28
2022-10-14T16:36:55.452Z,13.25
2022-10-14T16:39:24.825Z,13.21
2022-10-14T16:41:55.723Z,13.18
2022-10-14T16:44:27.965Z,13.15
2022-10-14T16:47:17.649Z,13.14
2022-10-14T16:49:51.833Z,13.10
2022-10-14T16:52:22.933Z,13.09
2022-10-14T16:54:53.758Z,13.04
2022-10-14T16:57:23.274Z,12.99
2022-10-14T16:59:53.049Z,12.96
2022-10-14T17:02:31.688Z,12.95
2022-10-14T17:05:01.538Z,12.92
2022-10-14T17:07:33.765Z,12.87
2022-10-14T17:10:03.272Z,12.83
2022-10-14T17:12:33.613Z,12.79
2022-10-14T17:15:03.257Z,12.79
2022-10-14T17:17:33.085Z,12.77
2022-10-14T17:20:02.497Z,12.74
2022-10-14T17:22:33.404Z,12.73
2022-10-14T17:25:02.859Z,12.69
2022-10-14T17:27:32.461Z,12.68
2022-10-14T17:30:01.927Z,12.67
2022-10-14T17:32:31.357Z,12.67
2022-10-14T17:35:00.733Z,12.69
2022-10-14T17:37:30.873Z,12.68
2022-10-14T17:40:01.978Z,12.66
2022-10-14T17:42:32.086Z,12.66
2022-10-14T17:45:01.430Z,12.64
2022-10-14T17:47:30.894Z,12.64
2022-10-14T17:50:00.319Z,12.67
2022-10-14T17:52:29.813Z,12.66
2022-10-14T17:55:01.437Z,12.66
2022-10-14T17:57:32.542Z,12.65
2022-10-14T18:00:02.021Z,12.64
2022-10-14T18:02:41.357Z,12.62
2022-10-14T18:05:11.104Z,12.64
2022-10-14T18:07:40.966Z,12.66
2022-10-14T18:10:10.880Z,12.71
2022-10-14T18:12:41.970Z,12.77
2022-10-14T18:15:12.049Z,12.74
2022-10-14T18:17:43.493Z,12.75
2022-10-14T18:20:13.236Z,12.75
2022-10-14T18:22:42.806Z,12.74
2022-10-14T18:25:14.989Z,12.78
2022-10-14T18:27:46.059Z,12.88
2022-10-14T18:30:15.633Z,12.86
2022-10-14T18:32:45.212Z,12.80
2022-10-14T18:35:14.719Z,12.80
2022-10-14T18:37:44.337Z,12.76
2022-10-14T18:40:16.844Z,12.75
2022-10-14T18:42:47.619Z,12.78
2022-10-14T18:45:17.073Z,12.76
2022-10-14T18:47:48.208Z,12.76
2022-10-14T18:50:18.148Z,12.80
2022-10-14T18:52:47.730Z,12.74
2022-10-14T18:55:17.411Z,12.74
2022-10-14T18:57:48.237Z,12.72
2022-10-14T19:00:19.154Z,12.77
2022-10-14T19:02:48.744Z,12.75
2022-10-14T19:05:19.070Z,12.76
2022-10-14T19:07:49.605Z,12.78
2022-10-14T19:10:19.222Z,12.76
2022-10-14T19:12:50.922Z,12.84
2022-10-14T19:15:25.454Z,12.91
2022-10-14T19:17:56.529Z,12.98
2022-10-14T19:20:26.326Z,12.94
2022-10-14T19:22:56.867Z,12.91
2022-10-14T19:25:26.681Z,12.89
2022-10-14T19:27:57.709Z,12.85
2022-10-14T19:30:27.650Z,12.91
2022-10-14T19:32:57.272Z,12.86
2022-10-14T19:35:27.229Z,12.87
2022-10-14T19:37:56.797Z,12.86
2022-10-14T19:40:26.349Z,12.83
2022-10-14T19:42:57.222Z,12.80
2022-10-14T19:45:26.706Z,12.79
2022-10-14T19:47:56.156Z,12.79
2022-10-14T19:50:25.569Z,12.79
2022-10-14T19:52:55.139Z,12.78
2022-10-14T19:55:24.901Z,12.76
2022-10-14T19:57:56.067Z,12.74
2022-10-14T20:00:26.788Z,12.72
2022-10-14T20:02:56.250Z,12.70
2022-10-14T20:05:25.818Z,12.68
2022-10-14T20:07:55.297Z,12.67
2022-10-14T20:10:24.765Z,12.65
2022-10-14T20:12:54.211Z,12.64
2022-10-14T20:15:23.609Z,12.64
2022-10-14T20:17:54.405Z,12.62
2022-10-14T20:20:23.905Z,12.61
2022-10-14T20:22:53.292Z,12.58
2022-10-14T20:25:22.661Z,12.58
2022-10-14T20:27:52.020Z,12.56
2022-10-14T20:30:21.374Z,12.54
2022-10-14T20:32:50.734Z,12.54
2022-10-14T20:35:21.702Z,12.52
2022-10-14T20:37:51.085Z,12.50
2022-10-14T20:40:20.465Z,12.50
2022-10-14T20:42:49.853Z,12.51
2022-10-14T20:45:19.300Z,12.50
2022-10-14T20:47:53.392Z,12.52
2022-10-14T20:50:24.757Z,12.50
2022-10-14T20:52:54.238Z,12.52
2022-10-14T20:55:23.586Z,12.53
2022-10-14T20:57:53.119Z,12.52
2022-10-14T21:00:22.728Z,12.53
2022-10-14T21:02:52.255Z,12.53
2022-10-14T21:05:21.712Z,12.53
2022-10-14T21:07:53.073Z,12.52
2022-10-14T21:10:23.070Z,12.52
2022-10-14T21:12:52.628Z,12.50
2022-10-14T21:15:21.995Z,12.51
2022-10-14T21:17:51.643Z,12.50
2022-10-14T21:20:21.261Z,12.50
2022-10-14T21:22:52.136Z,12.51
2022-10-14T21:25:21.560Z,12.50
2022-10-14T21:27:50.981Z,12.49
2022-10-14T21:30:20.481Z,12.48
2022-10-14T21:32:49.920Z,12.50
2022-10-14T21:35:19.642Z,12.49
2022-10-14T21:37:49.067Z,12.50
2022-10-14T21:40:20.097Z,12.49
2022-10-14T21:42:49.429Z,12.50
2022-10-14T21:45:18.872Z,12.53
2022-10-14T21:47:48.401Z,12.51
2022-10-14T21:50:18.076Z,12.52
2022-10-14T21:52:47.558Z,12.50
2022-10-14T21:55:22.256Z,12.50
2022-10-14T21:57:52.405Z,12.50
2022-10-14T22:00:22.104Z,12.48
2022-10-14T22:02:55.005Z,12.47
2022-10-14T22:05:24.441Z,12.45
2022-10-14T22:07:53.825Z,12.45
2022-10-14T22:10:43.579Z,12.44
2022-10-14T22:13:13.315Z,12.45
2022-10-14T22:15:43.905Z,12.47
2022-10-14T22:18:13.392Z,12.45
2022-10-14T22:20:42.833Z,12.49
2022-10-14T22:23:12.598Z,12.48
2022-10-14T22:25:43.446Z,12.50
2022-10-14T22:28:12.790Z,12.45
2022-10-14T22:30:42.304Z,12.47
2022-10-14T22:33:11.676Z,12.43
2022-10-14T22:35:41.213Z,12.44
2022-10-14T22:38:10.896Z,12.42
2022-10-14T22:40:41.672Z,12.38
2022-10-14T22:43:11.004Z,12.37
2022-10-14T22:45:40.468Z,12.34
2022-10-14T22:48:09.856Z,12.33
2022-10-14T22:50:39.245Z,12.30
2022-10-14T22:53:08.652Z,12.28
2022-10-14T22:55:37.993Z,12.25
2022-10-14T22:58:08.809Z,12.22
2022-10-14T23:03:08.612Z,12.18
2022-10-14T23:05:38.249Z,12.15
2022-10-14T23:08:10.512Z,12.16
2022-10-14T23:10:40.242Z,12.15
2022-10-14T23:13:11.856Z,12.12
2022-10-14T23:15:41.335Z,12.18
2022-10-14T23:18:10.890Z,12.18
2022-10-14T23:20:40.315Z,12.16
2022-10-14T23:23:09.716Z,12.14
2022-10-14T23:25:41.449Z,12.13
2022-10-14T23:28:12.342Z,12.10
2022-10-14T23:30:41.952Z,12.09
2022-10-14T23:33:12.518Z,12.11
2022-10-14T23:35:41.944Z,12.08
2022-10-14T23:38:13.355Z,12.07
2022-10-14T23:40:42.846Z,12.06
2022-10-14T23:43:13.657Z,12.07
2022-10-14T23:45:43.080Z,12.12
2022-10-14T23:48:12.449Z,12.08
2022-10-14T23:50:44.138Z,12.08
2022-10-14T23:53:13.961Z,12.09
2022-10-14T23:55:45.370Z,12.09
2022-10-14T23:58:16.313Z,12.05
